createdAt,value
2018-09-20T00:01:28.726Z,98862.73
2018-09-20T00:03:56.678Z,98861.88
2018-09-20T00:06:24.474Z,98861.89
2018-09-20T00:08:52.192Z,98858.15
2018-09-20T00:11:19.774Z,98854.11
2018-09-20T00:13:47.589Z,98857.31
2018-09-20T00:16:15.463Z,98860.54
2018-09-20T00:18:43.355Z,98852.55
2018-09-20T00:21:11.057Z,98857.42
2018-09-20T00:23:38.753Z,98855.78
2018-09-20T00:26:06.977Z,98852.83
2018-09-20T00:28:34.762Z,98854.50
2018-09-20T00:31:02.590Z,98854.50
2018-09-20T00:33:30.311Z,98852.88
2018-09-20T00:35:58.387Z,98852.38
2018-09-20T00:38:26.072Z,98852.61
2018-09-20T00:40:53.625Z,98856.34
2018-09-20T00:43:21.306Z,98850.75
2018-09-20T00:45:49.027Z,98857.20
2018-09-20T00:48:16.901Z,98857.20
2018-09-20T00:50:44.646Z,98852.09
2018-09-20T00:53:12.529Z,98846.24
2018-09-20T00:55:40.195Z,98847.87
2018-09-20T00:58:07.983Z,98844.11
2018-09-20T01:00:35.659Z,98833.98
2018-09-20T01:03:03.502Z,98845.79
2018-09-20T01:05:31.203Z,98842.05
2018-09-20T01:09:03.906Z,98842.05
2018-09-20T01:11:31.717Z,98843.39
2018-09-20T01:13:59.585Z,98838.30
2018-09-20T01:16:27.446Z,98837.51
2018-09-20T01:20:50.219Z,98844.99
2018-09-20T01:23:17.818Z,98844.16
2018-09-20T01:25:45.605Z,98855.16
2018-09-20T01:28:13.467Z,98843.12
2018-09-20T01:30:41.193Z,98849.28
2018-09-20T01:35:35.229Z,98847.97
2018-09-20T01:38:02.970Z,98854.92
2018-09-20T01:40:30.975Z,98835.39
2018-09-20T01:42:58.929Z,98848.48
2018-09-20T01:45:26.201Z,98795.88
2018-09-20T01:47:53.778Z,98840.23
2018-09-20T01:52:00.186Z,98845.30
2018-09-20T01:54:28.035Z,98844.23
2018-09-20T01:56:55.909Z,98843.44
2018-09-20T01:59:23.737Z,98823.14
2018-09-20T02:01:51.713Z,98851.70
2018-09-20T02:04:19.586Z,98848.51
2018-09-20T02:06:47.457Z,98851.70
2018-09-20T02:09:15.195Z,98849.59
2018-09-20T02:11:43.306Z,98850.94
2018-09-20T02:14:11.013Z,98847.45
2018-09-20T02:16:38.840Z,98846.92
2018-09-20T02:19:06.775Z,98847.75
2018-09-20T02:21:34.587Z,98846.68
2018-09-20T02:24:02.557Z,98854.44
2018-09-20T02:26:30.054Z,98852.80
2018-09-20T02:28:57.874Z,98848.53
2018-09-20T02:31:25.758Z,98853.06
2018-09-20T02:33:53.605Z,98856.30
2018-09-20T02:36:21.578Z,98855.23
2018-09-20T02:38:49.588Z,98850.94
2018-09-20T02:42:06.942Z,98852.27
2018-09-20T02:44:34.786Z,98853.08
2018-09-20T02:47:02.759Z,98860.83
2018-09-20T02:49:30.587Z,98858.43
2018-09-20T02:51:58.508Z,98854.42
2018-09-20T02:54:26.240Z,98858.97
2018-09-20T02:56:54.019Z,98857.88
2018-09-20T02:59:22.267Z,98853.62
2018-09-20T03:01:49.949Z,98857.90
2018-09-20T03:04:17.581Z,98855.48
2018-09-20T03:06:45.678Z,98854.14
2018-09-20T03:09:13.655Z,98849.89
2018-09-20T03:11:41.535Z,98845.87
2018-09-20T03:14:09.650Z,98846.13
2018-09-20T03:16:37.466Z,98852.28
2018-09-20T03:19:06.036Z,98853.90
2018-09-20T03:21:33.761Z,98847.75
2018-09-20T03:24:01.646Z,98848.28
2018-09-20T03:26:29.639Z,98846.67
2018-09-20T03:28:57.565Z,98846.15
2018-09-20T03:31:25.490Z,98839.73
2018-09-20T03:33:52.713Z,98847.49
2018-09-20T03:36:20.577Z,98843.48
2018-09-20T03:38:48.561Z,98846.94
2018-09-20T03:41:15.884Z,98852.53
2018-09-20T03:43:43.665Z,98847.20
2018-09-20T03:46:11.584Z,98849.60
2018-09-20T03:48:39.310Z,98851.70
2018-09-20T03:51:06.549Z,98852.02
2018-09-20T03:53:34.301Z,98849.33
2018-09-20T03:56:02.010Z,98859.48
2018-09-20T03:58:29.870Z,98863.45
2018-09-20T04:00:57.710Z,98860.55
2018-09-20T04:03:25.558Z,98855.48
2018-09-20T04:05:53.590Z,98857.61
2018-09-20T04:08:21.546Z,98859.50
2018-09-20T04:10:49.302Z,98860.49
2018-09-20T04:13:17.181Z,98858.90
2018-09-20T04:15:45.131Z,98857.06
2018-09-20T04:18:12.992Z,98857.63
2018-09-20T04:20:40.912Z,98852.53
2018-09-20T04:23:08.699Z,98856.99
2018-09-20T04:25:36.677Z,98855.16
2018-09-20T04:28:04.505Z,98851.70
2018-09-20T04:30:32.213Z,98846.86
2018-09-20T04:33:00.067Z,98853.25
2018-09-20T04:35:27.860Z,98855.14
2018-09-20T04:37:55.690Z,98858.08
2018-09-20T04:42:50.176Z,98857.56
2018-09-20T04:45:17.751Z,98863.72
2018-09-20T04:47:45.665Z,98863.50
2018-09-20T04:50:12.986Z,98866.20
2018-09-20T04:52:40.990Z,98869.38
2018-09-20T04:55:08.790Z,98869.38
2018-09-20T04:57:36.829Z,98874.99
2018-09-20T05:00:04.842Z,98871.80
2018-09-20T05:02:32.805Z,98873.13
2018-09-20T05:05:00.670Z,98871.52
2018-09-20T05:07:28.581Z,98875.77
2018-09-20T05:09:56.406Z,98875.23
2018-09-20T05:12:24.199Z,98877.08
2018-09-20T05:14:51.563Z,98877.92
2018-09-20T05:17:19.302Z,98881.13
2018-09-20T05:19:47.051Z,98880.61
2018-09-20T05:22:14.772Z,98886.47
2018-09-20T05:24:42.590Z,98879.80
2018-09-20T05:27:10.432Z,98888.87
2018-09-20T05:29:38.001Z,98884.06
2018-09-20T05:32:05.922Z,98889.38
2018-09-20T05:34:34.521Z,98885.10
2018-09-20T05:37:02.198Z,98886.70
2018-09-20T05:39:29.853Z,98884.56
2018-09-20T05:41:58.018Z,98885.39
2018-09-20T05:44:25.874Z,98893.66
2018-09-20T05:46:53.715Z,98892.84
2018-09-20T05:49:21.579Z,98899.00
2018-09-20T05:51:49.866Z,98892.05
2018-09-20T05:54:17.785Z,98901.66
2018-09-20T05:56:45.581Z,98901.95
2018-09-20T05:59:13.554Z,98907.81
2018-09-20T06:01:40.758Z,98907.83
2018-09-20T06:04:08.737Z,98909.69
2018-09-20T06:06:36.601Z,98900.88
2018-09-20T06:09:06.687Z,98904.87
2018-09-20T06:11:34.560Z,98915.02
2018-09-20T06:14:02.401Z,98906.48
2018-09-20T06:16:30.168Z,98908.05
2018-09-20T06:18:57.579Z,98913.67
2018-09-20T06:21:25.478Z,98915.27
2018-09-20T06:23:53.184Z,98916.61
2018-09-20T06:26:21.232Z,98920.91
2018-09-20T06:28:48.949Z,98919.57
2018-09-20T06:31:16.766Z,98921.42
2018-09-20T06:33:44.581Z,98918.47
2018-09-20T06:36:12.481Z,98917.66
2018-09-20T06:38:40.390Z,98913.94
2018-09-20T06:41:08.194Z,98912.85
2018-09-20T06:43:35.983Z,98915.55
2018-09-20T06:46:03.749Z,98905.11
2018-09-20T06:48:31.615Z,98915.81
2018-09-20T06:50:59.466Z,98921.67
2018-09-20T06:53:27.200Z,98915.54
2018-09-20T06:55:55.053Z,98915.79
2018-09-20T06:58:22.716Z,98917.66
2018-09-20T07:00:50.558Z,98921.94
2018-09-20T07:05:55.278Z,98911.72
2018-09-20T07:08:23.043Z,98914.41
2018-09-20T07:10:50.409Z,98916.02
2018-09-20T07:13:18.409Z,98912.52
2018-09-20T07:15:46.178Z,98916.00
2018-09-20T07:18:13.972Z,98912.80
2018-09-20T07:20:41.925Z,98919.20
2018-09-20T07:23:09.756Z,98916.53
2018-09-20T07:25:37.758Z,98913.29
2018-09-20T07:28:05.581Z,98921.34
2018-09-20T07:30:33.309Z,98920.80
2018-09-20T07:33:01.377Z,98917.61
2018-09-20T07:35:29.059Z,98922.41
2018-09-20T07:37:56.894Z,98920.52
2018-09-20T07:40:24.950Z,98919.44
2018-09-20T07:42:52.850Z,98914.94
2018-09-20T07:45:20.758Z,98919.71
2018-09-20T07:47:48.825Z,98918.39
2018-09-20T07:50:16.694Z,98921.30
2018-09-20T07:52:44.657Z,98921.30
2018-09-20T07:55:12.445Z,98924.52
2018-09-20T07:57:40.208Z,98925.59
2018-09-20T08:00:08.044Z,98917.03
2018-09-20T08:02:35.758Z,98921.31
2018-09-20T08:05:03.007Z,98920.20
2018-09-20T08:07:30.952Z,98918.06
2018-09-20T08:09:58.300Z,98914.33
2018-09-20T08:12:26.038Z,98919.66
2018-09-20T08:14:53.770Z,98919.41
2018-09-20T08:17:21.590Z,98918.31
2018-09-20T08:19:50.377Z,98916.45
2018-09-20T08:22:18.066Z,98920.97
2018-09-20T08:24:45.765Z,98920.99
2018-09-20T08:27:14.010Z,98920.72
2018-09-20T08:29:41.881Z,98867.34
2018-09-20T08:32:09.865Z,98921.25
2018-09-20T08:34:37.659Z,98919.11
2018-09-20T08:37:05.572Z,98915.88
2018-09-20T08:39:33.309Z,98915.86
2018-09-20T08:42:01.025Z,98909.69
2018-09-20T08:44:28.748Z,98917.97
2018-09-20T08:48:40.641Z,98910.75
2018-09-20T08:51:08.622Z,98914.25
2018-09-20T08:53:36.401Z,98913.16
2018-09-20T08:56:03.807Z,98911.03
2018-09-20T08:58:32.956Z,98913.16
2018-09-20T09:01:02.808Z,98916.38
2018-09-20T09:03:30.864Z,98906.46
2018-09-20T09:05:58.734Z,98914.23
2018-09-20T09:08:26.593Z,98917.67
2018-09-20T09:10:54.227Z,98913.65
2018-09-20T09:13:22.014Z,98883.23
2018-09-20T09:15:49.204Z,98904.26
2018-09-20T09:18:16.997Z,98902.14
2018-09-20T09:20:44.807Z,98903.44
2018-09-20T09:23:12.688Z,98901.01
2018-09-20T09:25:40.538Z,98900.76
2018-09-20T09:28:08.405Z,98898.08
2018-09-20T09:30:36.029Z,98901.56
2018-09-20T09:33:03.601Z,98895.17
2018-09-20T09:35:31.334Z,98891.38
2018-09-20T09:37:59.358Z,98892.72
2018-09-20T09:40:28.222Z,98863.31
2018-09-20T09:42:56.066Z,98876.89
2018-09-20T09:45:24.586Z,98883.59
2018-09-20T09:47:52.513Z,98884.12
2018-09-20T09:50:20.205Z,98875.00
2018-09-20T09:52:48.006Z,98850.42
2018-09-20T09:55:15.187Z,98878.16
2018-09-20T09:57:43.709Z,98866.91
2018-09-20T10:00:11.562Z,98863.70
2018-09-20T10:02:39.520Z,98870.12
2018-09-20T10:05:07.602Z,98867.42
2018-09-20T10:07:35.457Z,98870.34
2018-09-20T10:10:03.195Z,98859.10
2018-09-20T10:12:30.994Z,98852.43
2018-09-20T10:14:58.893Z,98842.27
2018-09-20T10:17:26.649Z,98850.22
2018-09-20T10:19:54.584Z,98805.41
2018-09-20T10:22:22.334Z,98846.79
2018-09-20T10:24:50.003Z,98842.20
2018-09-20T10:27:17.205Z,98847.54
2018-09-20T10:29:44.929Z,98845.42
2018-09-20T10:32:12.717Z,98849.38
2018-09-20T10:34:40.534Z,98837.88
2018-09-20T10:37:08.474Z,98838.69
2018-09-20T10:39:36.198Z,98839.22
2018-09-20T10:42:03.313Z,98829.34
2018-09-20T10:44:31.002Z,98827.94
2018-09-20T10:46:58.761Z,98829.00
2018-09-20T10:49:26.587Z,98826.32
2018-09-20T10:51:54.398Z,98822.30
2018-09-20T10:54:22.201Z,98816.34
2018-09-20T10:56:49.974Z,98816.91
2018-09-20T10:59:17.806Z,98793.66
2018-09-20T11:01:45.684Z,98807.00
2018-09-20T11:04:13.479Z,98801.35
2018-09-20T11:06:41.205Z,98800.86
2018-09-20T11:09:09.686Z,98787.95
2018-09-20T11:11:36.926Z,98791.16
2018-09-20T11:14:05.014Z,98783.96
2018-09-20T11:16:32.435Z,98759.16
2018-09-20T11:19:00.206Z,98779.88
2018-09-20T11:21:27.933Z,98777.72
2018-09-20T11:23:55.657Z,98772.08
2018-09-20T11:26:23.533Z,98766.97
2018-09-20T11:28:51.207Z,98764.56
2018-09-20T11:31:18.997Z,98759.20
2018-09-20T11:33:46.207Z,98755.43
2018-09-20T11:37:26.342Z,98762.62
2018-09-20T11:39:54.047Z,98758.36
2018-09-20T11:42:21.466Z,98755.19
2018-09-20T11:44:49.200Z,98751.45
2018-09-20T11:47:17.233Z,98751.34
2018-09-20T11:49:45.031Z,98746.05
2018-09-20T11:52:12.781Z,98742.83
2018-09-20T11:54:40.585Z,98739.59
2018-09-20T11:57:08.309Z,98733.14
2018-09-20T11:59:35.962Z,98729.11
2018-09-20T12:02:03.911Z,98732.33
2018-09-20T12:04:31.750Z,98726.96
2018-09-20T12:06:59.597Z,98723.75
2018-09-20T12:09:27.142Z,98720.58
2018-09-20T12:11:54.873Z,98720.30
2018-09-20T12:14:22.349Z,98713.34
2018-09-20T12:16:50.048Z,98710.34
2018-09-20T12:19:17.817Z,98704.45
2018-09-20T12:21:45.648Z,98696.94
2018-09-20T12:24:13.542Z,98694.58
2018-09-20T12:26:41.212Z,98690.06
2018-09-20T12:29:08.964Z,98684.95
2018-09-20T12:31:36.801Z,98680.64
2018-09-20T12:34:04.709Z,98668.75
2018-09-20T12:36:32.509Z,98674.52
2018-09-20T12:39:00.180Z,98669.19
2018-09-20T12:41:27.988Z,98666.71
2018-09-20T12:43:55.205Z,98660.45
2018-09-20T12:46:23.011Z,98654.24
2018-09-20T12:48:50.682Z,98642.87
2018-09-20T12:51:18.452Z,98655.95
2018-09-20T12:53:46.615Z,98653.03
2018-09-20T12:56:14.329Z,98628.58
2018-09-20T12:58:46.378Z,98646.04
2018-09-20T13:01:14.381Z,98643.03
2018-09-20T13:03:42.108Z,98635.31
2018-09-20T13:06:09.861Z,98641.48
2018-09-20T13:08:37.650Z,98636.37
2018-09-20T13:11:05.478Z,98633.36
2018-09-20T13:13:32.706Z,98629.09
2018-09-20T13:16:00.430Z,98626.70
2018-09-20T13:18:28.877Z,98620.77
2018-09-20T13:20:56.709Z,98620.20
2018-09-20T13:23:24.586Z,98618.61
2018-09-20T13:25:52.313Z,98614.47
2018-09-20T13:28:20.023Z,98614.47
2018-09-20T13:30:47.453Z,98604.16
2018-09-20T13:33:15.196Z,98603.29
2018-09-20T13:35:43.066Z,98595.88
2018-09-20T13:38:10.885Z,98586.14
2018-09-20T13:40:38.938Z,98595.77
2018-09-20T13:43:06.741Z,98591.31
2018-09-20T13:45:35.069Z,98594.52
2018-09-20T13:48:02.336Z,98592.84
2018-09-20T13:50:30.078Z,98590.92
2018-09-20T13:52:57.868Z,98588.29
2018-09-20T13:55:25.701Z,98586.66
2018-09-20T13:57:53.486Z,98589.34
2018-09-20T14:00:21.211Z,98593.03
2018-09-20T14:02:49.222Z,98580.96
2018-09-20T14:05:17.066Z,98581.73
2018-09-20T14:07:44.855Z,98573.25
2018-09-20T14:10:12.997Z,98573.16
2018-09-20T14:12:44.602Z,98579.80
2018-09-20T14:15:12.420Z,98569.94
2018-09-20T14:17:40.180Z,98568.55
2018-09-20T14:20:08.062Z,98570.70
2018-09-20T14:22:35.458Z,98564.02
2018-09-20T14:25:03.206Z,98563.77
2018-09-20T14:27:30.935Z,98564.30
2018-09-20T14:29:58.790Z,98560.46
2018-09-20T14:32:26.623Z,98553.28
2018-09-20T14:37:30.195Z,98549.78
2018-09-20T14:39:57.990Z,98523.45
2018-09-20T14:42:25.793Z,98544.88
2018-09-20T14:44:53.607Z,98535.98
2018-09-20T14:47:21.457Z,98532.42
2018-09-20T14:49:48.623Z,98525.00
2018-09-20T14:52:16.473Z,98528.16
2018-09-20T14:54:44.403Z,98531.18
2018-09-20T14:57:12.084Z,98523.47
2018-09-20T14:59:39.772Z,98521.03
2018-09-20T15:02:07.782Z,98521.91
2018-09-20T15:04:35.626Z,98518.83
2018-09-20T15:07:03.842Z,98516.72
2018-09-20T15:09:31.641Z,98522.79
2018-09-20T15:11:59.529Z,98479.52
2018-09-20T15:14:27.645Z,98519.72
2018-09-20T15:16:55.925Z,98513.40
2018-09-20T15:19:23.690Z,98511.42
2018-09-20T15:22:40.741Z,98504.81
2018-09-20T15:25:08.699Z,98508.69
2018-09-20T15:27:36.517Z,98476.83
2018-09-20T15:30:05.480Z,98485.16
2018-09-20T15:32:33.233Z,98497.13
2018-09-20T15:35:00.926Z,98497.71
2018-09-20T15:37:28.821Z,98501.61
2018-09-20T15:39:56.709Z,98496.53
2018-09-20T15:42:24.501Z,98497.53
2018-09-20T15:44:52.208Z,98490.06
2018-09-20T15:47:19.963Z,98478.69
2018-09-20T15:49:47.739Z,98492.41
2018-09-20T15:52:15.591Z,98483.37
2018-09-20T15:54:43.313Z,98487.69
2018-09-20T15:57:10.989Z,98490.95
2018-09-20T15:59:38.779Z,98463.94
2018-09-20T16:02:06.584Z,98487.73
2018-09-20T16:04:34.462Z,98484.47
2018-09-20T16:07:02.500Z,98481.20
2018-09-20T16:09:30.193Z,98484.64
2018-09-20T16:11:57.996Z,98479.92
2018-09-20T16:14:25.805Z,98483.89
2018-09-20T16:16:53.640Z,98481.77
2018-09-20T16:19:21.522Z,98483.80
2018-09-20T16:21:49.186Z,98477.64
2018-09-20T16:24:16.528Z,98483.11
2018-09-20T16:26:44.210Z,98453.50
2018-09-20T16:29:44.662Z,98468.25
2018-09-20T16:37:00.960Z,98469.54
2018-09-20T16:39:29.661Z,98473.33
2018-09-20T16:42:00.590Z,98471.71
2018-09-20T16:44:28.409Z,98467.69
2018-09-20T16:46:55.761Z,98463.88
2018-09-20T16:49:23.573Z,98465.16
2018-09-20T16:51:51.518Z,98473.45
2018-09-20T16:54:19.195Z,98471.28
2018-09-20T16:56:46.927Z,98470.64
2018-09-20T16:59:15.609Z,98467.17
2018-09-20T17:04:21.197Z,98468.00
2018-09-20T17:06:49.416Z,98470.69
2018-09-20T17:10:25.405Z,98473.05
2018-09-20T17:12:53.196Z,98469.11
2018-09-20T17:15:21.044Z,98466.72
2018-09-20T17:17:50.618Z,98460.64
2018-09-20T17:20:18.590Z,98472.33
2018-09-20T17:22:46.562Z,98474.95
2018-09-20T17:25:14.472Z,98475.81
2018-09-20T17:27:42.381Z,98475.55
2018-09-20T17:30:10.353Z,98476.13
2018-09-20T17:32:38.318Z,98472.62
2018-09-20T17:35:06.203Z,98480.22
2018-09-20T17:37:36.581Z,98479.77
2018-09-20T17:40:04.493Z,98470.31
2018-09-20T17:42:32.894Z,98474.56
2018-09-20T17:45:01.716Z,98476.48
2018-09-20T17:47:29.648Z,98476.56
2018-09-20T17:49:57.468Z,98479.57
2018-09-20T17:52:26.234Z,98476.45
2018-09-20T17:54:54.965Z,98476.75
2018-09-20T17:57:24.428Z,98479.55
2018-09-20T17:59:52.253Z,98478.70
2018-09-20T18:02:20.028Z,98479.25
2018-09-20T18:04:47.782Z,98478.58
2018-09-20T18:07:16.224Z,98483.28
2018-09-20T18:09:44.218Z,98479.28
2018-09-20T18:12:12.305Z,98484.11
2018-09-20T18:14:39.528Z,98484.19
2018-09-20T18:17:07.462Z,98474.66
2018-09-20T18:19:35.209Z,98484.75
2018-09-20T18:22:02.978Z,98480.72
2018-09-20T18:24:30.922Z,98466.09
2018-09-20T18:26:58.930Z,98471.22
2018-09-20T18:29:26.861Z,98474.06
2018-09-20T18:31:54.830Z,98480.27
2018-09-20T18:34:23.059Z,98473.91
2018-09-20T18:36:50.932Z,98477.34
2018-09-20T18:39:18.861Z,98483.02
2018-09-20T18:41:46.880Z,98483.78
2018-09-20T18:44:14.601Z,98485.12
2018-09-20T18:46:42.509Z,98479.52
2018-09-20T18:49:10.350Z,98483.19
2018-09-20T18:51:38.060Z,98485.34
2018-09-20T18:54:05.966Z,98488.83
2018-09-20T18:56:33.802Z,98486.14
2018-09-20T18:59:02.621Z,98481.36
2018-09-20T19:01:30.494Z,98491.02
2018-09-20T19:03:57.744Z,98485.02
2018-09-20T19:06:25.862Z,98478.91
2018-09-20T19:08:54.030Z,98483.39
2018-09-20T19:11:22.370Z,98489.19
2018-09-20T19:13:50.180Z,98480.14
2018-09-20T19:16:17.947Z,98478.58
2018-09-20T19:18:46.042Z,98478.73
2018-09-20T19:21:13.500Z,98479.86
2018-09-20T19:23:41.188Z,98477.47
2018-09-20T19:26:08.800Z,98476.05
2018-09-20T19:28:36.586Z,98475.90
2018-09-20T19:31:04.493Z,98475.20
2018-09-20T19:33:32.454Z,98471.28
2018-09-20T19:36:00.297Z,98473.80
2018-09-20T19:38:27.998Z,98471.45
2018-09-20T19:40:55.914Z,98458.84
2018-09-20T19:43:23.741Z,98474.20
2018-09-20T19:45:51.565Z,98462.79
2018-09-20T19:48:19.306Z,98468.46
2018-09-20T19:50:46.541Z,98467.15
2018-09-20T19:53:14.347Z,98469.34
2018-09-20T19:55:42.032Z,98465.96
2018-09-20T19:58:09.897Z,98455.95
2018-09-20T20:00:37.721Z,98465.85
2018-09-20T20:03:05.686Z,98454.84
2018-09-20T20:05:33.623Z,98462.41
2018-09-20T20:08:01.551Z,98453.36
2018-09-20T20:10:29.209Z,98452.78
2018-09-20T20:12:57.429Z,98452.78
2018-09-20T20:15:25.192Z,98448.00
2018-09-20T20:17:52.873Z,98446.39
2018-09-20T20:20:20.802Z,98444.45
2018-09-20T20:22:48.623Z,98443.39
2018-09-20T20:25:16.549Z,98439.66
2018-09-20T20:27:44.441Z,98436.16
2018-09-20T20:30:11.705Z,98435.66
2018-09-20T20:32:39.588Z,98431.14
2018-09-20T20:35:07.369Z,98429.22
2018-09-20T20:37:34.585Z,98430.05
2018-09-20T20:40:02.426Z,98421.24
2018-09-20T20:42:30.181Z,98423.92
2018-09-20T20:44:58.039Z,98427.36
2018-09-20T20:47:26.533Z,98428.17
2018-09-20T20:49:54.198Z,98420.36
2018-09-20T20:52:21.942Z,98418.72
2018-09-20T20:54:49.557Z,98419.84
2018-09-20T20:57:17.475Z,98420.89
2018-09-20T20:59:45.417Z,98423.23
2018-09-20T21:02:13.598Z,98412.78
2018-09-20T21:04:41.393Z,98418.42
2018-09-20T21:07:08.641Z,98422.23
2018-09-20T21:09:36.547Z,98417.27
2018-09-20T21:12:04.669Z,98413.11
2018-09-20T21:14:32.680Z,98401.55
2018-09-20T21:17:00.527Z,98410.95
2018-09-20T21:19:28.469Z,98412.56
2018-09-20T21:21:56.329Z,98411.38
2018-09-20T21:24:24.186Z,98411.17
2018-09-20T21:26:51.945Z,98408.97
2018-09-20T21:29:19.748Z,98405.06
2018-09-20T21:31:47.682Z,98403.33
2018-09-20T21:34:15.689Z,98396.49
2018-09-20T21:36:43.586Z,98400.52
2018-09-20T21:39:12.175Z,98396.85
2018-09-20T21:41:40.579Z,98394.77
2018-09-20T21:44:08.869Z,98384.46
2018-09-20T21:46:37.505Z,98385.13
2018-09-20T21:49:05.531Z,98382.09
2018-09-20T21:51:33.533Z,98378.60
2018-09-20T21:54:01.239Z,98374.05
2018-09-20T21:56:28.996Z,98373.34
2018-09-20T21:58:56.429Z,98365.80
2018-09-20T22:01:24.309Z,98376.13
2018-09-20T22:03:52.062Z,98370.26
2018-09-20T22:06:19.855Z,98370.02
2018-09-20T22:08:47.725Z,98370.08
2018-09-20T22:11:14.966Z,98370.16
2018-09-20T22:16:02.720Z,98358.89
2018-09-20T22:18:30.916Z,98361.81
2018-09-20T22:20:58.753Z,98356.66
2018-09-20T22:23:26.615Z,98360.23
2018-09-20T22:25:54.401Z,98355.34
2018-09-20T22:28:22.204Z,98354.81
2018-09-20T22:30:50.325Z,98353.52
2018-09-20T22:33:18.034Z,98347.05
2018-09-20T22:35:46.190Z,98345.20
2018-09-20T22:38:15.051Z,98342.20
2018-09-20T22:40:43.046Z,98333.98
2018-09-20T22:43:11.203Z,98338.02
2018-09-20T22:45:39.119Z,98328.98
2018-09-20T22:48:06.846Z,98335.27
2018-09-20T22:50:34.506Z,98331.02
2018-09-20T22:53:02.206Z,98331.04
2018-09-20T22:55:29.930Z,98332.37
2018-09-20T22:57:57.846Z,98319.30
2018-09-20T23:00:25.797Z,98319.72
2018-09-20T23:02:55.019Z,98317.89
2018-09-20T23:05:22.506Z,98317.38
2018-09-20T23:07:50.306Z,98307.75
2018-09-20T23:10:18.172Z,98309.39
2018-09-20T23:12:46.049Z,98309.34
2018-09-20T23:15:13.894Z,98312.88
2018-09-20T23:17:43.766Z,98313.12
2018-09-20T23:20:46.246Z,98309.58
2018-09-20T23:23:14.074Z,98304.78
2018-09-20T23:25:42.004Z,98312.38
2018-09-20T23:28:09.972Z,98304.09
2018-09-20T23:30:37.807Z,98309.63
2018-09-20T23:33:05.640Z,98307.06
2018-09-20T23:35:33.537Z,98296.52
2018-09-20T23:38:01.434Z,98302.98
2018-09-20T23:40:29.191Z,98300.70
2018-09-20T23:42:56.926Z,98295.82
2018-09-20T23:45:24.701Z,98292.61
2018-09-20T23:47:51.980Z,98291.00
2018-09-20T23:50:19.990Z,98287.98
2018-09-20T23:52:47.404Z,98276.30
2018-09-20T23:55:15.401Z,98293.59
2018-09-20T23:57:43.310Z,98296.88
